
<gpx xmlns="http://www.topografix.com/GPX/1/1" xmlns:gpxx="http://www.garmin.com/xmlschemas/GpxExtensions/v3" xmlns:xsi="http://www.w3.org/2001/XMLSchema-instance" version="1.1" creator="Adze - http://kobotsw.com/apps/adze" xsi:schemaLocation="http://www.topografix.com/GPX/1/1 http://www.topografix.com/GPX/1/1/gpx.xsd http://www.garmin.com/xmlschemas/GpxExtensions/v3 http://www.garmin.com/xmlschemas/GpxExtensionsv3.xsd">
    <metadata>
        <name>Untitled Document</name>
        <link href="http://www.garmin.com"></link>
        <time>2018-02-26T07:32:53.972Z</time>
    </metadata>
    <trk>
        <name>Sunday</name>
        <extensions>
            <gpxx:TrackExtension xmlns:gpxx="http://www.garmin.com/xmlschemas/GpxExtensions/v3">
                <gpxx:DisplayColor>Green</gpxx:DisplayColor>
            </gpxx:TrackExtension>
        </extensions>
        <trkseg>
            <trkpt lon="99.959366" lat="12.531562">
                <ele>16.000000</ele>
                <time>2013-06-30T03:03:48Z</time>
            </trkpt>
            <trkpt lon="99.959549" lat="12.531620">
                <ele>15.040000</ele>
                <time>2013-06-30T03:04:25Z</time>
            </trkpt>
            <trkpt lon="99.959533" lat="12.531192">
                <ele>15.040000</ele>
                <time>2013-06-30T03:04:47Z</time>
            </trkpt>
            <trkpt lon="99.958196" lat="12.530048">
                <ele>16.480000</ele>
                <time>2013-06-30T03:05:40Z</time>
            </trkpt>
            <trkpt lon="99.957551" lat="12.529223">
                <ele>19.360000</ele>
                <time>2013-06-30T03:06:09Z</time>
            </trkpt>
            <trkpt lon="99.956582" lat="12.528820">
                <ele>21.290000</ele>
                <time>2013-06-30T03:06:37Z</time>
            </trkpt>
            <trkpt lon="99.956010" lat="12.528898">
                <ele>21.770000</ele>
                <time>2013-06-30T03:06:52Z</time>
            </trkpt>
            <trkpt lon="99.955494" lat="12.528960">
                <ele>21.770000</ele>
                <time>2013-06-30T03:07:06Z</time>
            </trkpt>
            <trkpt lon="99.955024" lat="12.527362">
                <ele>24.170000</ele>
                <time>2013-06-30T03:07:47Z</time>
            </trkpt>
            <trkpt lon="99.954899" lat="12.526350">
                <ele>26.090000</ele>
                <time>2013-06-30T03:08:12Z</time>
            </trkpt>
            <trkpt lon="99.955600" lat="12.525033">
                <ele>26.090000</ele>
                <time>2013-06-30T03:08:46Z</time>
            </trkpt>
            <trkpt lon="99.955790" lat="12.523899">
                <ele>28.020000</ele>
                <time>2013-06-30T03:09:16Z</time>
            </trkpt>
            <trkpt lon="99.956087" lat="12.523147">
                <ele>30.900000</ele>
                <time>2013-06-30T03:09:41Z</time>
            </trkpt>
            <trkpt lon="99.956010" lat="12.522336">
                <ele>34.740000</ele>
                <time>2013-06-30T03:10:10Z</time>
            </trkpt>
            <trkpt lon="99.954886" lat="12.522624">
                <ele>36.670000</ele>
                <time>2013-06-30T03:10:49Z</time>
            </trkpt>
            <trkpt lon="99.954615" lat="12.522883">
                <ele>35.230000</ele>
                <time>2013-06-30T03:10:59Z</time>
            </trkpt>
            <trkpt lon="99.953638" lat="12.522790">
                <ele>36.670000</ele>
                <time>2013-06-30T03:11:23Z</time>
            </trkpt>
            <trkpt lon="99.953175" lat="12.522587">
                <ele>37.150000</ele>
                <time>2013-06-30T03:11:37Z</time>
            </trkpt>
            <trkpt lon="99.952788" lat="12.521980">
                <ele>42.440000</ele>
                <time>2013-06-30T03:12:00Z</time>
            </trkpt>
            <trkpt lon="99.951776" lat="12.521852">
                <ele>46.280000</ele>
                <time>2013-06-30T03:12:36Z</time>
            </trkpt>
            <trkpt lon="99.950830" lat="12.521190">
                <ele>51.090000</ele>
                <time>2013-06-30T03:13:20Z</time>
            </trkpt>
            <trkpt lon="99.949524" lat="12.520637">
                <ele>57.340000</ele>
                <time>2013-06-30T03:14:13Z</time>
            </trkpt>
            <trkpt lon="99.948311" lat="12.519718">
                <ele>68.390000</ele>
                <time>2013-06-30T03:15:17Z</time>
            </trkpt>
            <trkpt lon="99.947563" lat="12.519579">
                <ele>77.040000</ele>
                <time>2013-06-30T03:16:12Z</time>
            </trkpt>
            <trkpt lon="99.947100" lat="12.519514">
                <ele>78.970000</ele>
                <time>2013-06-30T03:16:40Z</time>
            </trkpt>
            <trkpt lon="99.946512" lat="12.519780">
                <ele>76.080000</ele>
                <time>2013-06-30T03:17:03Z</time>
            </trkpt>
            <trkpt lon="99.946203" lat="12.519656">
                <ele>76.560000</ele>
                <time>2013-06-30T03:17:14Z</time>
            </trkpt>
            <trkpt lon="99.945590" lat="12.519727">
                <ele>74.160000</ele>
                <time>2013-06-30T03:17:29Z</time>
            </trkpt>
            <trkpt lon="99.944651" lat="12.520163">
                <ele>71.270000</ele>
                <time>2013-06-30T03:17:48Z</time>
            </trkpt>
            <trkpt lon="99.944598" lat="12.520234">
                <ele>69.830000</ele>
                <time>2013-06-30T03:17:51Z</time>
            </trkpt>
            <trkpt lon="99.944043" lat="12.523210">
                <ele>49.160000</ele>
                <time>2013-06-30T03:19:59Z</time>
            </trkpt>
            <trkpt lon="99.944142" lat="12.523950">
                <ele>42.920000</ele>
                <time>2013-06-30T03:20:23Z</time>
            </trkpt>
            <trkpt lon="99.943687" lat="12.524756">
                <ele>38.110000</ele>
                <time>2013-06-30T03:20:52Z</time>
            </trkpt>
            <trkpt lon="99.942813" lat="12.524533">
                <ele>39.070000</ele>
                <time>2013-06-30T03:22:43Z</time>
            </trkpt>
            <trkpt lon="99.941820" lat="12.523767">
                <ele>40.510000</ele>
                <time>2013-06-30T03:23:21Z</time>
            </trkpt>
            <trkpt lon="99.941414" lat="12.523565">
                <ele>40.030000</ele>
                <time>2013-06-30T03:23:34Z</time>
            </trkpt>
            <trkpt lon="99.939606" lat="12.523266">
                <ele>41.950000</ele>
                <time>2013-06-30T03:24:58Z</time>
            </trkpt>
            <trkpt lon="99.939321" lat="12.523039">
                <ele>44.360000</ele>
                <time>2013-06-30T03:25:11Z</time>
            </trkpt>
            <trkpt lon="99.938875" lat="12.522296">
                <ele>47.720000</ele>
                <time>2013-06-30T03:25:41Z</time>
            </trkpt>
            <trkpt lon="99.938549" lat="12.521882">
                <ele>49.160000</ele>
                <time>2013-06-30T03:25:58Z</time>
            </trkpt>
            <trkpt lon="99.938245" lat="12.521413">
                <ele>49.160000</ele>
                <time>2013-06-30T03:26:13Z</time>
            </trkpt>
            <trkpt lon="99.936655" lat="12.518235">
                <ele>48.200000</ele>
                <time>2013-06-30T03:27:29Z</time>
            </trkpt>
            <trkpt lon="99.936591" lat="12.515608">
                <ele>55.410000</ele>
                <time>2013-06-30T03:28:35Z</time>
            </trkpt>
            <trkpt lon="99.936585" lat="12.514348">
                <ele>56.370000</ele>
                <time>2013-06-30T03:29:09Z</time>
            </trkpt>
            <trkpt lon="99.936149" lat="12.512888">
                <ele>55.410000</ele>
                <time>2013-06-30T03:29:42Z</time>
            </trkpt>
            <trkpt lon="99.935698" lat="12.512081">
                <ele>56.370000</ele>
                <time>2013-06-30T03:30:02Z</time>
            </trkpt>
            <trkpt lon="99.935756" lat="12.510412">
                <ele>60.700000</ele>
                <time>2013-06-30T03:30:44Z</time>
            </trkpt>
            <trkpt lon="99.935693" lat="12.509744">
                <ele>61.660000</ele>
                <time>2013-06-30T03:31:02Z</time>
            </trkpt>
            <trkpt lon="99.935468" lat="12.509259">
                <ele>61.180000</ele>
                <time>2013-06-30T03:31:16Z</time>
            </trkpt>
            <trkpt lon="99.935562" lat="12.507961">
                <ele>59.740000</ele>
                <time>2013-06-30T03:31:45Z</time>
            </trkpt>
            <trkpt lon="99.935656" lat="12.507614">
                <ele>59.260000</ele>
                <time>2013-06-30T03:31:52Z</time>
            </trkpt>
            <trkpt lon="99.936422" lat="12.506652">
                <ele>60.700000</ele>
                <time>2013-06-30T03:32:19Z</time>
            </trkpt>
            <trkpt lon="99.936525" lat="12.505591">
                <ele>62.620000</ele>
                <time>2013-06-30T03:32:48Z</time>
            </trkpt>
            <trkpt lon="99.936398" lat="12.504162">
                <ele>67.910000</ele>
                <time>2013-06-30T03:33:37Z</time>
            </trkpt>
            <trkpt lon="99.936521" lat="12.503439">
                <ele>70.790000</ele>
                <time>2013-06-30T03:34:05Z</time>
            </trkpt>
            <trkpt lon="99.936594" lat="12.503127">
                <ele>71.270000</ele>
                <time>2013-06-30T03:34:17Z</time>
            </trkpt>
            <trkpt lon="99.936689" lat="12.502162">
                <ele>69.350000</ele>
                <time>2013-06-30T03:34:40Z</time>
            </trkpt>
            <trkpt lon="99.936409" lat="12.501270">
                <ele>69.350000</ele>
                <time>2013-06-30T03:34:57Z</time>
            </trkpt>
            <trkpt lon="99.935631" lat="12.501272">
                <ele>67.430000</ele>
                <time>2013-06-30T03:35:14Z</time>
            </trkpt>
            <trkpt lon="99.935271" lat="12.501401">
                <ele>66.470000</ele>
                <time>2013-06-30T03:35:22Z</time>
            </trkpt>
            <trkpt lon="99.934788" lat="12.501482">
                <ele>65.030000</ele>
                <time>2013-06-30T03:35:32Z</time>
            </trkpt>
            <trkpt lon="99.934486" lat="12.501385">
                <ele>65.510000</ele>
                <time>2013-06-30T03:35:39Z</time>
            </trkpt>
            <trkpt lon="99.933661" lat="12.501424">
                <ele>62.620000</ele>
                <time>2013-06-30T03:35:54Z</time>
            </trkpt>
            <trkpt lon="99.931329" lat="12.502019">
                <ele>58.300000</ele>
                <time>2013-06-30T03:36:48Z</time>
            </trkpt>
            <trkpt lon="99.930422" lat="12.501882">
                <ele>57.340000</ele>
                <time>2013-06-30T03:37:15Z</time>
            </trkpt>
            <trkpt lon="99.930331" lat="12.501852">
                <ele>56.860000</ele>
                <time>2013-06-30T03:37:18Z</time>
            </trkpt>
            <trkpt lon="99.929955" lat="12.502351">
                <ele>57.340000</ele>
                <time>2013-06-30T03:37:39Z</time>
            </trkpt>
            <trkpt lon="99.929712" lat="12.503284">
                <ele>59.260000</ele>
                <time>2013-06-30T03:38:11Z</time>
            </trkpt>
            <trkpt lon="99.928455" lat="12.503735">
                <ele>64.070000</ele>
                <time>2013-06-30T03:38:57Z</time>
            </trkpt>
            <trkpt lon="99.927586" lat="12.503769">
                <ele>61.660000</ele>
                <time>2013-06-30T03:39:30Z</time>
            </trkpt>
            <trkpt lon="99.927092" lat="12.503911">
                <ele>58.300000</ele>
                <time>2013-06-30T03:39:45Z</time>
            </trkpt>
            <trkpt lon="99.926557" lat="12.504354">
                <ele>58.780000</ele>
                <time>2013-06-30T03:40:13Z</time>
            </trkpt>
            <trkpt lon="99.925299" lat="12.505123">
                <ele>54.450000</ele>
                <time>2013-06-30T03:40:44Z</time>
            </trkpt>
            <trkpt lon="99.925407" lat="12.505694">
                <ele>56.370000</ele>
                <time>2013-06-30T03:41:03Z</time>
            </trkpt>
            <trkpt lon="99.924859" lat="12.505796">
                <ele>54.450000</ele>
                <time>2013-06-30T03:41:21Z</time>
            </trkpt>
            <trkpt lon="99.924467" lat="12.505769">
                <ele>54.450000</ele>
                <time>2013-06-30T03:41:33Z</time>
            </trkpt>
            <trkpt lon="99.924104" lat="12.505487">
                <ele>52.050000</ele>
                <time>2013-06-30T03:41:52Z</time>
            </trkpt>
            <trkpt lon="99.923324" lat="12.505179">
                <ele>47.240000</ele>
                <time>2013-06-30T03:42:13Z</time>
            </trkpt>
            <trkpt lon="99.922663" lat="12.503783">
                <ele>42.920000</ele>
                <time>2013-06-30T03:42:49Z</time>
            </trkpt>
            <trkpt lon="99.922185" lat="12.503295">
                <ele>43.880000</ele>
                <time>2013-06-30T03:43:13Z</time>
            </trkpt>
            <trkpt lon="99.922166" lat="12.503267">
                <ele>43.400000</ele>
                <time>2013-06-30T03:43:24Z</time>
            </trkpt>
            <trkpt lon="99.918744" lat="12.503692">
                <ele>37.630000</ele>
                <time>2013-06-30T03:44:47Z</time>
            </trkpt>
            <trkpt lon="99.918557" lat="12.503584">
                <ele>37.630000</ele>
                <time>2013-06-30T03:44:52Z</time>
            </trkpt>
            <trkpt lon="99.917976" lat="12.502808">
                <ele>35.710000</ele>
                <time>2013-06-30T03:45:15Z</time>
            </trkpt>
            <trkpt lon="99.916866" lat="12.501987">
                <ele>33.300000</ele>
                <time>2013-06-30T03:46:01Z</time>
            </trkpt>
            <trkpt lon="99.916868" lat="12.501864">
                <ele>33.300000</ele>
                <time>2013-06-30T03:46:09Z</time>
            </trkpt>
            <trkpt lon="99.918068" lat="12.502887">
                <ele>35.710000</ele>
                <time>2013-06-30T03:48:27Z</time>
            </trkpt>
            <trkpt lon="99.918607" lat="12.503670">
                <ele>38.110000</ele>
                <time>2013-06-30T03:48:58Z</time>
            </trkpt>
            <trkpt lon="99.918722" lat="12.504352">
                <ele>37.150000</ele>
                <time>2013-06-30T03:49:22Z</time>
            </trkpt>
            <trkpt lon="99.918953" lat="12.504745">
                <ele>38.110000</ele>
                <time>2013-06-30T03:49:35Z</time>
            </trkpt>
            <trkpt lon="99.918833" lat="12.505666">
                <ele>36.190000</ele>
                <time>2013-06-30T03:50:01Z</time>
            </trkpt>
            <trkpt lon="99.919558" lat="12.506224">
                <ele>36.670000</ele>
                <time>2013-06-30T03:50:24Z</time>
            </trkpt>
            <trkpt lon="99.919719" lat="12.506658">
                <ele>37.150000</ele>
                <time>2013-06-30T03:50:36Z</time>
            </trkpt>
            <trkpt lon="99.918986" lat="12.507376">
                <ele>38.590000</ele>
                <time>2013-06-30T03:51:12Z</time>
            </trkpt>
            <trkpt lon="99.919228" lat="12.507655">
                <ele>39.070000</ele>
                <time>2013-06-30T03:51:23Z</time>
            </trkpt>
            <trkpt lon="99.919796" lat="12.507887">
                <ele>40.030000</ele>
                <time>2013-06-30T03:51:38Z</time>
            </trkpt>
            <trkpt lon="99.920012" lat="12.507955">
                <ele>40.030000</ele>
                <time>2013-06-30T03:51:44Z</time>
            </trkpt>
            <trkpt lon="99.919908" lat="12.508079">
                <ele>40.510000</ele>
                <time>2013-06-30T03:51:53Z</time>
            </trkpt>
            <trkpt lon="99.919326" lat="12.509589">
                <ele>39.550000</ele>
                <time>2013-06-30T04:06:07Z</time>
            </trkpt>
            <trkpt lon="99.919650" lat="12.508672">
                <ele>40.990000</ele>
                <time>2013-06-30T04:06:57Z</time>
            </trkpt>
            <trkpt lon="99.919641" lat="12.508982">
                <ele>41.470000</ele>
                <time>2013-06-30T04:07:13Z</time>
            </trkpt>
            <trkpt lon="99.920935" lat="12.509248">
                <ele>41.470000</ele>
                <time>2013-06-30T04:07:59Z</time>
            </trkpt>
            <trkpt lon="99.921243" lat="12.510007">
                <ele>41.470000</ele>
                <time>2013-06-30T04:08:18Z</time>
            </trkpt>
            <trkpt lon="99.921113" lat="12.510602">
                <ele>41.950000</ele>
                <time>2013-06-30T04:08:32Z</time>
            </trkpt>
            <trkpt lon="99.921461" lat="12.511594">
                <ele>42.440000</ele>
                <time>2013-06-30T04:08:57Z</time>
            </trkpt>
            <trkpt lon="99.921464" lat="12.512030">
                <ele>43.400000</ele>
                <time>2013-06-30T04:09:10Z</time>
            </trkpt>
            <trkpt lon="99.921999" lat="12.512600">
                <ele>43.400000</ele>
                <time>2013-06-30T04:09:31Z</time>
            </trkpt>
            <trkpt lon="99.921521" lat="12.514095">
                <ele>41.470000</ele>
                <time>2013-06-30T04:10:10Z</time>
            </trkpt>
            <trkpt lon="99.920468" lat="12.513970">
                <ele>40.510000</ele>
                <time>2013-06-30T04:10:38Z</time>
            </trkpt>
            <trkpt lon="99.920197" lat="12.513753">
                <ele>40.510000</ele>
                <time>2013-06-30T04:10:47Z</time>
            </trkpt>
            <trkpt lon="99.919890" lat="12.513450">
                <ele>40.030000</ele>
                <time>2013-06-30T04:10:58Z</time>
            </trkpt>
            <trkpt lon="99.918870" lat="12.512842">
                <ele>38.110000</ele>
                <time>2013-06-30T04:11:31Z</time>
            </trkpt>
            <trkpt lon="99.918519" lat="12.513808">
                <ele>39.070000</ele>
                <time>2013-06-30T04:12:02Z</time>
            </trkpt>
            <trkpt lon="99.917837" lat="12.513859">
                <ele>37.630000</ele>
                <time>2013-06-30T04:12:24Z</time>
            </trkpt>
            <trkpt lon="99.917860" lat="12.514147">
                <ele>38.110000</ele>
                <time>2013-06-30T04:12:45Z</time>
            </trkpt>
            <trkpt lon="99.916174" lat="12.514279">
                <ele>35.710000</ele>
                <time>2013-06-30T04:13:27Z</time>
            </trkpt>
            <trkpt lon="99.915998" lat="12.514918">
                <ele>35.230000</ele>
                <time>2013-06-30T04:13:46Z</time>
            </trkpt>
            <trkpt lon="99.914390" lat="12.515033">
                <ele>35.710000</ele>
                <time>2013-06-30T04:14:28Z</time>
            </trkpt>
            <trkpt lon="99.913843" lat="12.515212">
                <ele>35.230000</ele>
                <time>2013-06-30T04:14:41Z</time>
            </trkpt>
            <trkpt lon="99.913599" lat="12.515399">
                <ele>34.740000</ele>
                <time>2013-06-30T04:14:49Z</time>
            </trkpt>
            <trkpt lon="99.913364" lat="12.516122">
                <ele>35.230000</ele>
                <time>2013-06-30T04:15:07Z</time>
            </trkpt>
            <trkpt lon="99.913233" lat="12.516846">
                <ele>34.740000</ele>
                <time>2013-06-30T04:15:25Z</time>
            </trkpt>
            <trkpt lon="99.913963" lat="12.517145">
                <ele>35.230000</ele>
                <time>2013-06-30T04:15:46Z</time>
            </trkpt>
            <trkpt lon="99.917151" lat="12.518096">
                <ele>37.150000</ele>
                <time>2013-06-30T04:16:56Z</time>
            </trkpt>
            <trkpt lon="99.917185" lat="12.519220">
                <ele>39.070000</ele>
                <time>2013-06-30T04:17:29Z</time>
            </trkpt>
            <trkpt lon="99.918009" lat="12.519641">
                <ele>40.030000</ele>
                <time>2013-06-30T04:18:00Z</time>
            </trkpt>
            <trkpt lon="99.918058" lat="12.519739">
                <ele>39.550000</ele>
                <time>2013-06-30T04:18:04Z</time>
            </trkpt>
            <trkpt lon="99.918146" lat="12.521216">
                <ele>40.990000</ele>
                <time>2013-06-30T04:18:48Z</time>
            </trkpt>
            <trkpt lon="99.919036" lat="12.521183">
                <ele>41.950000</ele>
                <time>2013-06-30T04:19:12Z</time>
            </trkpt>
            <trkpt lon="99.919695" lat="12.521121">
                <ele>40.510000</ele>
                <time>2013-06-30T04:19:27Z</time>
            </trkpt>
            <trkpt lon="99.920638" lat="12.521288">
                <ele>40.510000</ele>
                <time>2013-06-30T04:19:50Z</time>
            </trkpt>
            <trkpt lon="99.921305" lat="12.521718">
                <ele>41.470000</ele>
                <time>2013-06-30T04:20:10Z</time>
            </trkpt>
            <trkpt lon="99.921297" lat="12.523383">
                <ele>41.950000</ele>
                <time>2013-06-30T04:20:59Z</time>
            </trkpt>
            <trkpt lon="99.921521" lat="12.524527">
                <ele>45.320000</ele>
                <time>2013-06-30T04:21:41Z</time>
            </trkpt>
            <trkpt lon="99.921578" lat="12.524942">
                <ele>45.800000</ele>
                <time>2013-06-30T04:21:55Z</time>
            </trkpt>
            <trkpt lon="99.921794" lat="12.526552">
                <ele>46.280000</ele>
                <time>2013-06-30T04:22:46Z</time>
            </trkpt>
            <trkpt lon="99.921691" lat="12.526992">
                <ele>47.720000</ele>
                <time>2013-06-30T04:24:26Z</time>
            </trkpt>
            <trkpt lon="99.920858" lat="12.528597">
                <ele>51.570000</ele>
                <time>2013-06-30T04:25:43Z</time>
            </trkpt>
            <trkpt lon="99.920611" lat="12.529009">
                <ele>52.050000</ele>
                <time>2013-06-30T04:26:01Z</time>
            </trkpt>
            <trkpt lon="99.920330" lat="12.529188">
                <ele>52.530000</ele>
                <time>2013-06-30T04:26:14Z</time>
            </trkpt>
            <trkpt lon="99.919788" lat="12.529090">
                <ele>51.090000</ele>
                <time>2013-06-30T04:26:26Z</time>
            </trkpt>
            <trkpt lon="99.919527" lat="12.529196">
                <ele>50.130000</ele>
                <time>2013-06-30T04:26:32Z</time>
            </trkpt>
            <trkpt lon="99.919338" lat="12.530341">
                <ele>51.570000</ele>
                <time>2013-06-30T04:27:04Z</time>
            </trkpt>
            <trkpt lon="99.919083" lat="12.530842">
                <ele>51.570000</ele>
                <time>2013-06-30T04:27:20Z</time>
            </trkpt>
            <trkpt lon="99.917814" lat="12.531892">
                <ele>49.650000</ele>
                <time>2013-06-30T04:28:07Z</time>
            </trkpt>
            <trkpt lon="99.917609" lat="12.532299">
                <ele>50.130000</ele>
                <time>2013-06-30T04:28:20Z</time>
            </trkpt>
            <trkpt lon="99.917300" lat="12.532564">
                <ele>49.650000</ele>
                <time>2013-06-30T04:28:32Z</time>
            </trkpt>
            <trkpt lon="99.918048" lat="12.533587">
                <ele>50.130000</ele>
                <time>2013-06-30T04:29:11Z</time>
            </trkpt>
            <trkpt lon="99.918475" lat="12.533803">
                <ele>51.090000</ele>
                <time>2013-06-30T04:29:25Z</time>
            </trkpt>
            <trkpt lon="99.919075" lat="12.533891">
                <ele>52.530000</ele>
                <time>2013-06-30T04:29:46Z</time>
            </trkpt>
            <trkpt lon="99.919411" lat="12.534082">
                <ele>52.530000</ele>
                <time>2013-06-30T04:29:57Z</time>
            </trkpt>
            <trkpt lon="99.920230" lat="12.533798">
                <ele>54.450000</ele>
                <time>2013-06-30T04:30:25Z</time>
            </trkpt>
            <trkpt lon="99.921327" lat="12.533600">
                <ele>55.410000</ele>
                <time>2013-06-30T04:31:01Z</time>
            </trkpt>
            <trkpt lon="99.921425" lat="12.533707">
                <ele>54.930000</ele>
                <time>2013-06-30T04:31:09Z</time>
            </trkpt>
            <trkpt lon="99.921283" lat="12.537411">
                <ele>56.370000</ele>
                <time>2013-06-30T04:33:31Z</time>
            </trkpt>
            <trkpt lon="99.920787" lat="12.537616">
                <ele>54.930000</ele>
                <time>2013-06-30T04:34:24Z</time>
            </trkpt>
            <trkpt lon="99.919610" lat="12.537579">
                <ele>48.200000</ele>
                <time>2013-06-30T04:34:59Z</time>
            </trkpt>
            <trkpt lon="99.919005" lat="12.538059">
                <ele>49.650000</ele>
                <time>2013-06-30T04:36:02Z</time>
            </trkpt>
            <trkpt lon="99.918972" lat="12.538072">
                <ele>49.160000</ele>
                <time>2013-06-30T04:36:06Z</time>
            </trkpt>
            <trkpt lon="99.918734" lat="12.538451">
                <ele>50.610000</ele>
                <time>2013-06-30T04:36:53Z</time>
            </trkpt>
            <trkpt lon="99.918541" lat="12.539402">
                <ele>55.410000</ele>
                <time>2013-06-30T04:37:35Z</time>
            </trkpt>
            <trkpt lon="99.918104" lat="12.539547">
                <ele>58.780000</ele>
                <time>2013-06-30T04:43:05Z</time>
            </trkpt>
            <trkpt lon="99.918005" lat="12.540760">
                <ele>61.180000</ele>
                <time>2013-06-30T04:43:50Z</time>
            </trkpt>
            <trkpt lon="99.917692" lat="12.540860">
                <ele>60.220000</ele>
                <time>2013-06-30T04:44:00Z</time>
            </trkpt>
            <trkpt lon="99.917437" lat="12.541628">
                <ele>60.220000</ele>
                <time>2013-06-30T04:44:22Z</time>
            </trkpt>
            <trkpt lon="99.917361" lat="12.541824">
                <ele>59.740000</ele>
                <time>2013-06-30T04:44:29Z</time>
            </trkpt>
            <trkpt lon="99.917462" lat="12.542909">
                <ele>58.300000</ele>
                <time>2013-06-30T04:45:04Z</time>
            </trkpt>
            <trkpt lon="99.916344" lat="12.543520">
                <ele>61.660000</ele>
                <time>2013-06-30T04:45:45Z</time>
            </trkpt>
            <trkpt lon="99.916047" lat="12.543319">
                <ele>62.140000</ele>
                <time>2013-06-30T04:46:00Z</time>
            </trkpt>
            <trkpt lon="99.915690" lat="12.543013">
                <ele>62.140000</ele>
                <time>2013-06-30T04:46:13Z</time>
            </trkpt>
            <trkpt lon="99.915328" lat="12.542972">
                <ele>62.620000</ele>
                <time>2013-06-30T04:46:23Z</time>
            </trkpt>
            <trkpt lon="99.915095" lat="12.542441">
                <ele>61.180000</ele>
                <time>2013-06-30T04:46:43Z</time>
            </trkpt>
            <trkpt lon="99.914985" lat="12.542416">
                <ele>61.180000</ele>
                <time>2013-06-30T04:46:48Z</time>
            </trkpt>
            <trkpt lon="99.914558" lat="12.542574">
                <ele>61.180000</ele>
                <time>2013-06-30T04:47:03Z</time>
            </trkpt>
            <trkpt lon="99.913905" lat="12.543378">
                <ele>61.660000</ele>
                <time>2013-06-30T04:47:30Z</time>
            </trkpt>
            <trkpt lon="99.913662" lat="12.543578">
                <ele>61.180000</ele>
                <time>2013-06-30T04:47:38Z</time>
            </trkpt>
            <trkpt lon="99.913092" lat="12.543606">
                <ele>60.220000</ele>
                <time>2013-06-30T04:47:51Z</time>
            </trkpt>
            <trkpt lon="99.912901" lat="12.543878">
                <ele>60.220000</ele>
                <time>2013-06-30T04:48:00Z</time>
            </trkpt>
            <trkpt lon="99.912947" lat="12.545088">
                <ele>59.740000</ele>
                <time>2013-06-30T04:48:28Z</time>
            </trkpt>
            <trkpt lon="99.912559" lat="12.547769">
                <ele>58.780000</ele>
                <time>2013-06-30T04:49:24Z</time>
            </trkpt>
            <trkpt lon="99.912566" lat="12.548238">
                <ele>58.300000</ele>
                <time>2013-06-30T04:49:33Z</time>
            </trkpt>
            <trkpt lon="99.913400" lat="12.552296">
                <ele>59.260000</ele>
                <time>2013-06-30T04:50:52Z</time>
            </trkpt>
            <trkpt lon="99.913614" lat="12.552632">
                <ele>59.260000</ele>
                <time>2013-06-30T04:51:03Z</time>
            </trkpt>
            <trkpt lon="99.920858" lat="12.556067">
                <ele>85.690000</ele>
                <time>2013-06-30T04:55:12Z</time>
            </trkpt>
            <trkpt lon="99.921485" lat="12.556208">
                <ele>85.210000</ele>
                <time>2013-06-30T04:55:39Z</time>
            </trkpt>
            <trkpt lon="99.924754" lat="12.556197">
                <ele>80.410000</ele>
                <time>2013-06-30T04:57:23Z</time>
            </trkpt>
            <trkpt lon="99.929164" lat="12.555707">
                <ele>87.140000</ele>
                <time>2013-06-30T04:59:00Z</time>
            </trkpt>
            <trkpt lon="99.929597" lat="12.555328">
                <ele>85.690000</ele>
                <time>2013-06-30T04:59:11Z</time>
            </trkpt>
            <trkpt lon="99.929939" lat="12.555274">
                <ele>83.770000</ele>
                <time>2013-06-30T04:59:16Z</time>
            </trkpt>
            <trkpt lon="99.931116" lat="12.555622">
                <ele>77.520000</ele>
                <time>2013-06-30T04:59:29Z</time>
            </trkpt>
            <trkpt lon="99.931680" lat="12.555516">
                <ele>76.080000</ele>
                <time>2013-06-30T04:59:35Z</time>
            </trkpt>
            <trkpt lon="99.932222" lat="12.555080">
                <ele>75.120000</ele>
                <time>2013-06-30T04:59:43Z</time>
            </trkpt>
            <trkpt lon="99.932535" lat="12.554323">
                <ele>70.310000</ele>
                <time>2013-06-30T04:59:51Z</time>
            </trkpt>
            <trkpt lon="99.932924" lat="12.553977">
                <ele>65.510000</ele>
                <time>2013-06-30T04:59:56Z</time>
            </trkpt>
            <trkpt lon="99.933832" lat="12.553927">
                <ele>62.140000</ele>
                <time>2013-06-30T05:00:05Z</time>
            </trkpt>
            <trkpt lon="99.934467" lat="12.553807">
                <ele>56.860000</ele>
                <time>2013-06-30T05:00:13Z</time>
            </trkpt>
            <trkpt lon="99.934401" lat="12.553682">
                <ele>55.890000</ele>
                <time>2013-06-30T05:00:18Z</time>
            </trkpt>
            <trkpt lon="99.933916" lat="12.553534">
                <ele>56.860000</ele>
                <time>2013-06-30T05:00:34Z</time>
            </trkpt>
            <trkpt lon="99.933854" lat="12.553520">
                <ele>56.370000</ele>
                <time>2013-06-30T05:00:36Z</time>
            </trkpt>
            <trkpt lon="99.933656" lat="12.553207">
                <ele>53.010000</ele>
                <time>2013-06-30T05:00:43Z</time>
            </trkpt>
            <trkpt lon="99.933358" lat="12.553151">
                <ele>52.530000</ele>
                <time>2013-06-30T05:00:48Z</time>
            </trkpt>
            <trkpt lon="99.933375" lat="12.550509">
                <ele>53.490000</ele>
                <time>2013-06-30T05:01:45Z</time>
            </trkpt>
            <trkpt lon="99.933476" lat="12.550433">
                <ele>52.050000</ele>
                <time>2013-06-30T05:01:49Z</time>
            </trkpt>
            <trkpt lon="99.933719" lat="12.550544">
                <ele>52.530000</ele>
                <time>2013-06-30T05:03:17Z</time>
            </trkpt>
            <trkpt lon="99.933936" lat="12.550534">
                <ele>50.130000</ele>
                <time>2013-06-30T05:05:45Z</time>
            </trkpt>
            <trkpt lon="99.934669" lat="12.550162">
                <ele>43.400000</ele>
                <time>2013-06-30T05:05:59Z</time>
            </trkpt>
            <trkpt lon="99.937026" lat="12.549748">
                <ele>36.670000</ele>
                <time>2013-06-30T05:06:33Z</time>
            </trkpt>
            <trkpt lon="99.942587" lat="12.550458">
                <ele>30.900000</ele>
                <time>2013-06-30T05:09:32Z</time>
            </trkpt>
            <trkpt lon="99.942706" lat="12.550318">
                <ele>30.420000</ele>
                <time>2013-06-30T05:09:39Z</time>
            </trkpt>
            <trkpt lon="99.942278" lat="12.546764">
                <ele>30.900000</ele>
                <time>2013-06-30T05:11:13Z</time>
            </trkpt>
            <trkpt lon="99.942178" lat="12.546631">
                <ele>30.900000</ele>
                <time>2013-06-30T05:11:17Z</time>
            </trkpt>
            <trkpt lon="99.940038" lat="12.546249">
                <ele>34.740000</ele>
                <time>2013-06-30T05:12:18Z</time>
            </trkpt>
            <trkpt lon="99.939941" lat="12.545977">
                <ele>35.710000</ele>
                <time>2013-06-30T05:12:27Z</time>
            </trkpt>
            <trkpt lon="99.940062" lat="12.545427">
                <ele>36.190000</ele>
                <time>2013-06-30T05:12:44Z</time>
            </trkpt>
            <trkpt lon="99.940030" lat="12.543101">
                <ele>33.780000</ele>
                <time>2013-06-30T05:13:51Z</time>
            </trkpt>
            <trkpt lon="99.939292" lat="12.542049">
                <ele>35.710000</ele>
                <time>2013-06-30T05:14:28Z</time>
            </trkpt>
            <trkpt lon="99.939207" lat="12.541234">
                <ele>35.710000</ele>
                <time>2013-06-30T05:14:50Z</time>
            </trkpt>
            <trkpt lon="99.939735" lat="12.541276">
                <ele>33.780000</ele>
                <time>2013-06-30T05:15:05Z</time>
            </trkpt>
            <trkpt lon="99.940580" lat="12.541086">
                <ele>29.460000</ele>
                <time>2013-06-30T05:15:18Z</time>
            </trkpt>
            <trkpt lon="99.944169" lat="12.541550">
                <ele>24.650000</ele>
                <time>2013-06-30T05:16:41Z</time>
            </trkpt>
            <trkpt lon="99.944303" lat="12.541383">
                <ele>24.650000</ele>
                <time>2013-06-30T05:16:47Z</time>
            </trkpt>
            <trkpt lon="99.944286" lat="12.540718">
                <ele>25.130000</ele>
                <time>2013-06-30T05:17:01Z</time>
            </trkpt>
            <trkpt lon="99.944552" lat="12.539325">
                <ele>25.610000</ele>
                <time>2013-06-30T05:17:32Z</time>
            </trkpt>
            <trkpt lon="99.944946" lat="12.538532">
                <ele>24.650000</ele>
                <time>2013-06-30T05:17:50Z</time>
            </trkpt>
            <trkpt lon="99.946582" lat="12.537326">
                <ele>24.170000</ele>
                <time>2013-06-30T05:18:32Z</time>
            </trkpt>
            <trkpt lon="99.946696" lat="12.537288">
                <ele>23.690000</ele>
                <time>2013-06-30T05:18:35Z</time>
            </trkpt>
            <trkpt lon="99.949019" lat="12.537199">
                <ele>22.250000</ele>
                <time>2013-06-30T05:19:22Z</time>
            </trkpt>
            <trkpt lon="99.949600" lat="12.537359">
                <ele>22.250000</ele>
                <time>2013-06-30T05:19:34Z</time>
            </trkpt>
            <trkpt lon="99.950851" lat="12.538018">
                <ele>20.810000</ele>
                <time>2013-06-30T05:20:04Z</time>
            </trkpt>
            <trkpt lon="99.951709" lat="12.537940">
                <ele>20.320000</ele>
                <time>2013-06-30T05:20:20Z</time>
            </trkpt>
            <trkpt lon="99.952630" lat="12.538117">
                <ele>20.320000</ele>
                <time>2013-06-30T05:20:38Z</time>
            </trkpt>
            <trkpt lon="99.953283" lat="12.538297">
                <ele>19.840000</ele>
                <time>2013-06-30T05:20:51Z</time>
            </trkpt>
            <trkpt lon="99.953921" lat="12.538703">
                <ele>19.360000</ele>
                <time>2013-06-30T05:21:08Z</time>
            </trkpt>
            <trkpt lon="99.954602" lat="12.537754">
                <ele>18.880000</ele>
                <time>2013-06-30T05:21:39Z</time>
            </trkpt>
            <trkpt lon="99.955554" lat="12.535936">
                <ele>19.360000</ele>
                <time>2013-06-30T05:22:29Z</time>
            </trkpt>
            <trkpt lon="99.955855" lat="12.535874">
                <ele>19.360000</ele>
                <time>2013-06-30T05:22:36Z</time>
            </trkpt>
            <trkpt lon="99.957489" lat="12.535554">
                <ele>17.920000</ele>
                <time>2013-06-30T05:23:10Z</time>
            </trkpt>
            <trkpt lon="99.957615" lat="12.535427">
                <ele>17.920000</ele>
                <time>2013-06-30T05:23:14Z</time>
            </trkpt>
            <trkpt lon="99.956825" lat="12.533453">
                <ele>17.920000</ele>
                <time>2013-06-30T05:23:59Z</time>
            </trkpt>
            <trkpt lon="99.956874" lat="12.533116">
                <ele>18.400000</ele>
                <time>2013-06-30T05:24:07Z</time>
            </trkpt>
            <trkpt lon="99.958197" lat="12.533102">
                <ele>17.440000</ele>
                <time>2013-06-30T05:24:32Z</time>
            </trkpt>
            <trkpt lon="99.959321" lat="12.532774">
                <ele>16.480000</ele>
                <time>2013-06-30T05:24:54Z</time>
            </trkpt>
            <trkpt lon="99.959872" lat="12.532343">
                <ele>16.000000</ele>
                <time>2013-06-30T05:25:11Z</time>
            </trkpt>
            <trkpt lon="99.960034" lat="12.532077">
                <ele>16.480000</ele>
                <time>2013-06-30T05:25:25Z</time>
            </trkpt>
            <trkpt lon="99.959469" lat="12.531577">
                <ele>17.440000</ele>
                <time>2013-06-30T05:25:59Z</time>
            </trkpt>
            <trkpt lon="99.959446" lat="12.531337">
                <ele>16.960000</ele>
                <time>2013-06-30T05:26:11Z</time>
            </trkpt>
            <trkpt lon="99.959208" lat="12.531197">
                <ele>17.440000</ele>
                <time>2013-06-30T05:26:23Z</time>
            </trkpt>
            <trkpt lon="99.959200" lat="12.531222">
                <ele>16.960000</ele>
                <time>2013-06-30T05:26:29Z</time>
            </trkpt>
            <trkpt lon="99.959467" lat="12.531383">
                <ele>17.440000</ele>
                <time>2013-06-30T05:26:45Z</time>
            </trkpt>
            <trkpt lon="99.959441" lat="12.531486">
                <ele>16.960000</ele>
                <time>2013-06-30T05:26:50Z</time>
            </trkpt>
        </trkseg>
    </trk>
</gpx>